sensor_id;sensor_type;location;lat;lon;timestamp;P1;durP1;ratioP1;P2;durP2;ratioP2
72926;SDS011;61071;51.618;19.388;2023-04-08T00:01:05;19.00;;;14.70;;
72926;SDS011;61071;51.618;19.388;2023-04-08T00:03:31;20.13;;;15.88;;
72926;SDS011;61071;51.618;19.388;2023-04-08T00:05:57;19.17;;;15.55;;
72926;SDS011;61071;51.618;19.388;2023-04-08T00:08:24;19.33;;;14.27;;
72926;SDS011;61071;51.618;19.388;2023-04-08T00:10:50;20.15;;;15.30;;
72926;SDS011;61071;51.618;19.388;2023-04-08T00:13:16;20.08;;;14.82;;
72926;SDS011;61071;51.618;19.388;2023-04-08T00:15:41;21.95;;;15.43;;
72926;SDS011;61071;51.618;19.388;2023-04-08T00:18:07;18.65;;;14.27;;
72926;SDS011;61071;51.618;19.388;2023-04-08T00:20:33;23.52;;;15.68;;
72926;SDS011;61071;51.618;19.388;2023-04-08T00:22:59;21.83;;;15.63;;
72926;SDS011;61071;51.618;19.388;2023-04-08T00:25:24;23.00;;;15.02;;
72926;SDS011;61071;51.618;19.388;2023-04-08T00:27:50;22.50;;;15.63;;
72926;SDS011;61071;51.618;19.388;2023-04-08T00:30:16;19.70;;;14.52;;
72926;SDS011;61071;51.618;19.388;2023-04-08T00:32:47;22.05;;;15.38;;
72926;SDS011;61071;51.618;19.388;2023-04-08T00:35:13;21.13;;;15.23;;
72926;SDS011;61071;51.618;19.388;2023-04-08T00:37:39;19.55;;;14.38;;
72926;SDS011;61071;51.618;19.388;2023-04-08T00:40:05;20.90;;;15.27;;
72926;SDS011;61071;51.618;19.388;2023-04-08T00:42:31;20.75;;;15.45;;
72926;SDS011;61071;51.618;19.388;2023-04-08T00:44:57;21.65;;;15.52;;
72926;SDS011;61071;51.618;19.388;2023-04-08T00:47:22;21.30;;;15.35;;
72926;SDS011;61071;51.618;19.388;2023-04-08T00:49:48;20.60;;;15.70;;
72926;SDS011;61071;51.618;19.388;2023-04-08T00:52:15;20.00;;;14.25;;
72926;SDS011;61071;51.618;19.388;2023-04-08T00:54:41;21.83;;;15.82;;
72926;SDS011;61071;51.618;19.388;2023-04-08T00:57:06;19.58;;;14.85;;
72926;SDS011;61071;51.618;19.388;2023-04-08T00:59:32;22.08;;;14.82;;
72926;SDS011;61071;51.618;19.388;2023-04-08T01:05:20;20.98;;;15.45;;
72926;SDS011;61071;51.618;19.388;2023-04-08T01:08:02;20.17;;;15.57;;
72926;SDS011;61071;51.618;19.388;2023-04-08T01:10:33;23.30;;;16.77;;
72926;SDS011;61071;51.618;19.388;2023-04-08T01:13:05;22.27;;;16.17;;
72926;SDS011;61071;51.618;19.388;2023-04-08T01:15:35;21.17;;;15.43;;
72926;SDS011;61071;51.618;19.388;2023-04-08T01:18:05;22.88;;;15.75;;
72926;SDS011;61071;51.618;19.388;2023-04-08T01:20:34;22.35;;;15.65;;
72926;SDS011;61071;51.618;19.388;2023-04-08T01:23:02;21.45;;;15.73;;
72926;SDS011;61071;51.618;19.388;2023-04-08T01:25:54;24.27;;;16.63;;
72926;SDS011;61071;51.618;19.388;2023-04-08T01:28:22;19.73;;;15.02;;
72926;SDS011;61071;51.618;19.388;2023-04-08T01:30:54;20.42;;;14.63;;
72926;SDS011;61071;51.618;19.388;2023-04-08T01:33:23;19.90;;;15.55;;
72926;SDS011;61071;51.618;19.388;2023-04-08T01:35:50;21.02;;;15.30;;
72926;SDS011;61071;51.618;19.388;2023-04-08T01:38:18;19.13;;;15.00;;
72926;SDS011;61071;51.618;19.388;2023-04-08T01:40:47;20.38;;;15.38;;
72926;SDS011;61071;51.618;19.388;2023-04-08T01:43:14;18.48;;;14.77;;
72926;SDS011;61071;51.618;19.388;2023-04-08T01:45:45;20.08;;;14.43;;
72926;SDS011;61071;51.618;19.388;2023-04-08T01:48:12;19.70;;;14.50;;
72926;SDS011;61071;51.618;19.388;2023-04-08T01:50:43;19.98;;;14.48;;
72926;SDS011;61071;51.618;19.388;2023-04-08T01:53:09;17.67;;;13.32;;
72926;SDS011;61071;51.618;19.388;2023-04-08T01:55:39;21.60;;;15.10;;
72926;SDS011;61071;51.618;19.388;2023-04-08T01:58:07;20.08;;;15.13;;
72926;SDS011;61071;51.618;19.388;2023-04-08T02:00:37;22.15;;;15.68;;
72926;SDS011;61071;51.618;19.388;2023-04-08T02:03:07;17.52;;;13.10;;
72926;SDS011;61071;51.618;19.388;2023-04-08T02:05:36;17.00;;;13.90;;
72926;SDS011;61071;51.618;19.388;2023-04-08T02:08:02;18.50;;;13.85;;
72926;SDS011;61071;51.618;19.388;2023-04-08T02:10:27;18.42;;;13.15;;
72926;SDS011;61071;51.618;19.388;2023-04-08T02:12:53;17.85;;;13.65;;
72926;SDS011;61071;51.618;19.388;2023-04-08T02:15:20;17.73;;;13.48;;
72926;SDS011;61071;51.618;19.388;2023-04-08T02:17:47;16.88;;;12.57;;
72926;SDS011;61071;51.618;19.388;2023-04-08T02:23:09;17.77;;;12.75;;
72926;SDS011;61071;51.618;19.388;2023-04-08T02:25:48;16.40;;;12.82;;
72926;SDS011;61071;51.618;19.388;2023-04-08T02:28:17;16.75;;;12.57;;
72926;SDS011;61071;51.618;19.388;2023-04-08T02:30:48;18.45;;;13.00;;
72926;SDS011;61071;51.618;19.388;2023-04-08T02:35:47;16.20;;;11.65;;
72926;SDS011;61071;51.618;19.388;2023-04-08T02:38:15;18.40;;;11.93;;
72926;SDS011;61071;51.618;19.388;2023-04-08T02:40:41;16.38;;;12.10;;
72926;SDS011;61071;51.618;19.388;2023-04-08T02:43:06;15.52;;;12.90;;
72926;SDS011;61071;51.618;19.388;2023-04-08T02:45:40;15.57;;;10.40;;
72926;SDS011;61071;51.618;19.388;2023-04-08T02:48:07;12.43;;;9.20;;
72926;SDS011;61071;51.618;19.388;2023-04-08T02:50:33;12.73;;;9.90;;
72926;SDS011;61071;51.618;19.388;2023-04-08T02:52:58;14.27;;;10.32;;
72926;SDS011;61071;51.618;19.388;2023-04-08T02:55:24;12.82;;;9.65;;
72926;SDS011;61071;51.618;19.388;2023-04-08T02:57:50;13.13;;;10.13;;
72926;SDS011;61071;51.618;19.388;2023-04-08T03:00:15;12.27;;;10.20;;
72926;SDS011;61071;51.618;19.388;2023-04-08T03:02:41;12.50;;;9.57;;
72926;SDS011;61071;51.618;19.388;2023-04-08T03:05:07;12.82;;;9.82;;
72926;SDS011;61071;51.618;19.388;2023-04-08T03:07:34;12.73;;;9.25;;
72926;SDS011;61071;51.618;19.388;2023-04-08T03:10:00;11.02;;;8.60;;
72926;SDS011;61071;51.618;19.388;2023-04-08T03:12:26;11.95;;;8.77;;
72926;SDS011;61071;51.618;19.388;2023-04-08T03:14:52;12.70;;;9.27;;
72926;SDS011;61071;51.618;19.388;2023-04-08T03:17:18;10.93;;;9.50;;
72926;SDS011;61071;51.618;19.388;2023-04-08T03:19:45;10.93;;;8.13;;
72926;SDS011;61071;51.618;19.388;2023-04-08T03:22:11;11.25;;;8.38;;
72926;SDS011;61071;51.618;19.388;2023-04-08T03:24:38;11.15;;;8.07;;
72926;SDS011;61071;51.618;19.388;2023-04-08T03:27:04;8.27;;;6.85;;
72926;SDS011;61071;51.618;19.388;2023-04-08T03:29:30;9.70;;;7.65;;
72926;SDS011;61071;51.618;19.388;2023-04-08T03:31:56;10.20;;;7.85;;
72926;SDS011;61071;51.618;19.388;2023-04-08T03:34:22;10.95;;;8.05;;
72926;SDS011;61071;51.618;19.388;2023-04-08T03:36:47;10.25;;;7.88;;
72926;SDS011;61071;51.618;19.388;2023-04-08T03:39:13;11.02;;;8.35;;
72926;SDS011;61071;51.618;19.388;2023-04-08T03:41:38;11.05;;;6.68;;
72926;SDS011;61071;51.618;19.388;2023-04-08T03:44:04;10.10;;;7.57;;
72926;SDS011;61071;51.618;19.388;2023-04-08T03:46:30;9.95;;;8.05;;
72926;SDS011;61071;51.618;19.388;2023-04-08T03:48:55;10.45;;;7.70;;
72926;SDS011;61071;51.618;19.388;2023-04-08T03:51:21;11.80;;;9.15;;
72926;SDS011;61071;51.618;19.388;2023-04-08T03:53:47;11.38;;;9.23;;
72926;SDS011;61071;51.618;19.388;2023-04-08T03:56:13;11.98;;;9.32;;
72926;SDS011;61071;51.618;19.388;2023-04-08T03:58:39;15.30;;;11.27;;
72926;SDS011;61071;51.618;19.388;2023-04-08T04:01:05;15.82;;;11.98;;
72926;SDS011;61071;51.618;19.388;2023-04-08T04:03:31;15.63;;;11.73;;
72926;SDS011;61071;51.618;19.388;2023-04-08T04:05:56;15.70;;;12.25;;
72926;SDS011;61071;51.618;19.388;2023-04-08T04:08:22;14.25;;;11.48;;
72926;SDS011;61071;51.618;19.388;2023-04-08T04:10:48;16.63;;;12.43;;
72926;SDS011;61071;51.618;19.388;2023-04-08T04:13:13;14.65;;;11.52;;
72926;SDS011;61071;51.618;19.388;2023-04-08T04:15:39;13.55;;;9.77;;
72926;SDS011;61071;51.618;19.388;2023-04-08T04:18:05;12.07;;;8.82;;
72926;SDS011;61071;51.618;19.388;2023-04-08T04:20:32;11.10;;;8.68;;
72926;SDS011;61071;51.618;19.388;2023-04-08T04:22:57;11.57;;;9.20;;
72926;SDS011;61071;51.618;19.388;2023-04-08T04:25:23;8.95;;;7.63;;
72926;SDS011;61071;51.618;19.388;2023-04-08T04:27:49;10.30;;;8.40;;
72926;SDS011;61071;51.618;19.388;2023-04-08T04:30:15;7.88;;;6.72;;
72926;SDS011;61071;51.618;19.388;2023-04-08T04:32:41;9.82;;;8.02;;
72926;SDS011;61071;51.618;19.388;2023-04-08T04:35:10;10.77;;;8.27;;
72926;SDS011;61071;51.618;19.388;2023-04-08T04:37:37;9.77;;;7.95;;
72926;SDS011;61071;51.618;19.388;2023-04-08T04:40:03;10.45;;;7.60;;
72926;SDS011;61071;51.618;19.388;2023-04-08T04:42:30;8.38;;;7.22;;
72926;SDS011;61071;51.618;19.388;2023-04-08T04:44:56;10.77;;;7.93;;
72926;SDS011;61071;51.618;19.388;2023-04-08T04:47:22;8.77;;;7.85;;
72926;SDS011;61071;51.618;19.388;2023-04-08T04:49:49;8.23;;;7.15;;
72926;SDS011;61071;51.618;19.388;2023-04-08T04:52:14;10.45;;;7.93;;
72926;SDS011;61071;51.618;19.388;2023-04-08T04:54:40;9.48;;;7.85;;
72926;SDS011;61071;51.618;19.388;2023-04-08T04:57:06;8.95;;;8.00;;
72926;SDS011;61071;51.618;19.388;2023-04-08T04:59:32;10.40;;;8.40;;
72926;SDS011;61071;51.618;19.388;2023-04-08T05:01:57;10.60;;;8.85;;
72926;SDS011;61071;51.618;19.388;2023-04-08T05:04:23;10.15;;;9.07;;
72926;SDS011;61071;51.618;19.388;2023-04-08T05:06:50;12.30;;;10.07;;
72926;SDS011;61071;51.618;19.388;2023-04-08T05:09:16;12.32;;;9.93;;
72926;SDS011;61071;51.618;19.388;2023-04-08T05:11:42;8.57;;;7.50;;
72926;SDS011;61071;51.618;19.388;2023-04-08T05:14:07;9.20;;;7.45;;
72926;SDS011;61071;51.618;19.388;2023-04-08T05:16:33;9.55;;;7.63;;
72926;SDS011;61071;51.618;19.388;2023-04-08T05:18:59;9.82;;;8.40;;
72926;SDS011;61071;51.618;19.388;2023-04-08T05:21:25;10.63;;;8.75;;
72926;SDS011;61071;51.618;19.388;2023-04-08T05:23:51;10.30;;;8.70;;
72926;SDS011;61071;51.618;19.388;2023-04-08T05:26:18;11.63;;;9.30;;
72926;SDS011;61071;51.618;19.388;2023-04-08T05:28:46;9.98;;;8.43;;
72926;SDS011;61071;51.618;19.388;2023-04-08T05:31:16;10.05;;;8.82;;
72926;SDS011;61071;51.618;19.388;2023-04-08T05:33:43;10.73;;;8.45;;
72926;SDS011;61071;51.618;19.388;2023-04-08T05:36:12;9.82;;;8.57;;
72926;SDS011;61071;51.618;19.388;2023-04-08T05:38:39;10.70;;;7.97;;
72926;SDS011;61071;51.618;19.388;2023-04-08T05:41:07;9.57;;;8.02;;
72926;SDS011;61071;51.618;19.388;2023-04-08T05:43:32;8.50;;;7.35;;
72926;SDS011;61071;51.618;19.388;2023-04-08T05:45:59;8.15;;;7.32;;
72926;SDS011;61071;51.618;19.388;2023-04-08T05:48:24;8.70;;;7.57;;
72926;SDS011;61071;51.618;19.388;2023-04-08T05:50:50;9.00;;;7.95;;
72926;SDS011;61071;51.618;19.388;2023-04-08T05:53:16;7.90;;;7.10;;
72926;SDS011;61071;51.618;19.388;2023-04-08T05:55:41;8.82;;;7.38;;
72926;SDS011;61071;51.618;19.388;2023-04-08T05:58:07;7.07;;;6.35;;
72926;SDS011;61071;51.618;19.388;2023-04-08T06:00:33;8.45;;;7.55;;
72926;SDS011;61071;51.618;19.388;2023-04-08T06:02:58;7.72;;;6.72;;
72926;SDS011;61071;51.618;19.388;2023-04-08T06:05:24;7.28;;;6.50;;
72926;SDS011;61071;51.618;19.388;2023-04-08T06:07:50;7.07;;;5.88;;
72926;SDS011;61071;51.618;19.388;2023-04-08T06:10:16;6.72;;;5.93;;
72926;SDS011;61071;51.618;19.388;2023-04-08T06:12:41;8.50;;;6.10;;
72926;SDS011;61071;51.618;19.388;2023-04-08T06:15:07;7.50;;;5.90;;
72926;SDS011;61071;51.618;19.388;2023-04-08T06:17:37;7.93;;;6.60;;
72926;SDS011;61071;51.618;19.388;2023-04-08T06:20:06;9.00;;;6.10;;
72926;SDS011;61071;51.618;19.388;2023-04-08T06:22:35;8.38;;;6.30;;
72926;SDS011;61071;51.618;19.388;2023-04-08T06:25:02;8.35;;;5.88;;
72926;SDS011;61071;51.618;19.388;2023-04-08T06:27:28;6.32;;;5.60;;
72926;SDS011;61071;51.618;19.388;2023-04-08T06:29:54;6.57;;;5.03;;
72926;SDS011;61071;51.618;19.388;2023-04-08T06:32:20;6.10;;;5.22;;
72926;SDS011;61071;51.618;19.388;2023-04-08T06:34:46;6.93;;;5.40;;
72926;SDS011;61071;51.618;19.388;2023-04-08T06:37:13;7.55;;;5.60;;
72926;SDS011;61071;51.618;19.388;2023-04-08T06:39:38;5.82;;;5.07;;
72926;SDS011;61071;51.618;19.388;2023-04-08T06:42:04;5.70;;;4.97;;
72926;SDS011;61071;51.618;19.388;2023-04-08T06:44:30;7.70;;;6.05;;
72926;SDS011;61071;51.618;19.388;2023-04-08T06:46:56;8.05;;;6.35;;
72926;SDS011;61071;51.618;19.388;2023-04-08T06:49:22;8.27;;;6.30;;
72926;SDS011;61071;51.618;19.388;2023-04-08T06:51:47;10.38;;;7.18;;
72926;SDS011;61071;51.618;19.388;2023-04-08T06:54:13;8.77;;;6.93;;
72926;SDS011;61071;51.618;19.388;2023-04-08T06:56:39;12.50;;;7.60;;
72926;SDS011;61071;51.618;19.388;2023-04-08T06:59:05;9.32;;;7.03;;
72926;SDS011;61071;51.618;19.388;2023-04-08T07:01:30;10.25;;;7.32;;
72926;SDS011;61071;51.618;19.388;2023-04-08T07:03:56;10.20;;;8.25;;
72926;SDS011;61071;51.618;19.388;2023-04-08T07:06:22;9.85;;;8.20;;
72926;SDS011;61071;51.618;19.388;2023-04-08T07:08:48;8.95;;;7.90;;
72926;SDS011;61071;51.618;19.388;2023-04-08T07:11:14;11.60;;;8.82;;
72926;SDS011;61071;51.618;19.388;2023-04-08T07:13:39;10.60;;;8.52;;
72926;SDS011;61071;51.618;19.388;2023-04-08T07:16:05;11.13;;;8.43;;
72926;SDS011;61071;51.618;19.388;2023-04-08T07:18:31;12.07;;;8.73;;
72926;SDS011;61071;51.618;19.388;2023-04-08T07:20:57;10.27;;;9.05;;
72926;SDS011;61071;51.618;19.388;2023-04-08T07:23:24;11.75;;;9.07;;
72926;SDS011;61071;51.618;19.388;2023-04-08T07:25:51;10.98;;;8.85;;
72926;SDS011;61071;51.618;19.388;2023-04-08T07:28:18;11.00;;;9.65;;
72926;SDS011;61071;51.618;19.388;2023-04-08T07:30:44;14.25;;;8.65;;
72926;SDS011;61071;51.618;19.388;2023-04-08T07:33:11;11.48;;;9.57;;
72926;SDS011;61071;51.618;19.388;2023-04-08T07:35:37;9.23;;;7.97;;
72926;SDS011;61071;51.618;19.388;2023-04-08T07:38:03;11.43;;;7.53;;
72926;SDS011;61071;51.618;19.388;2023-04-08T07:40:28;11.63;;;9.57;;
72926;SDS011;61071;51.618;19.388;2023-04-08T07:42:54;10.82;;;8.40;;
72926;SDS011;61071;51.618;19.388;2023-04-08T07:45:20;9.57;;;7.78;;
72926;SDS011;61071;51.618;19.388;2023-04-08T07:47:46;11.07;;;8.35;;
72926;SDS011;61071;51.618;19.388;2023-04-08T07:50:12;9.07;;;7.63;;
72926;SDS011;61071;51.618;19.388;2023-04-08T07:52:38;9.82;;;7.10;;
72926;SDS011;61071;51.618;19.388;2023-04-08T07:55:03;9.75;;;8.55;;
72926;SDS011;61071;51.618;19.388;2023-04-08T07:57:30;9.98;;;8.55;;
72926;SDS011;61071;51.618;19.388;2023-04-08T07:59:56;11.07;;;8.05;;
72926;SDS011;61071;51.618;19.388;2023-04-08T08:02:22;9.40;;;7.95;;
72926;SDS011;61071;51.618;19.388;2023-04-08T08:04:48;10.63;;;8.35;;
72926;SDS011;61071;51.618;19.388;2023-04-08T08:07:14;10.55;;;9.23;;
72926;SDS011;61071;51.618;19.388;2023-04-08T08:09:40;10.10;;;8.50;;
72926;SDS011;61071;51.618;19.388;2023-04-08T08:12:05;9.13;;;7.85;;
72926;SDS011;61071;51.618;19.388;2023-04-08T08:14:31;10.75;;;8.60;;
72926;SDS011;61071;51.618;19.388;2023-04-08T08:16:57;9.80;;;8.55;;
72926;SDS011;61071;51.618;19.388;2023-04-08T08:19:22;10.18;;;8.52;;
72926;SDS011;61071;51.618;19.388;2023-04-08T08:21:48;9.13;;;7.57;;
72926;SDS011;61071;51.618;19.388;2023-04-08T08:24:14;9.70;;;7.88;;
72926;SDS011;61071;51.618;19.388;2023-04-08T08:26:40;10.18;;;7.40;;
72926;SDS011;61071;51.618;19.388;2023-04-08T08:29:09;9.48;;;8.15;;
72926;SDS011;61071;51.618;19.388;2023-04-08T08:31:34;11.38;;;8.70;;
72926;SDS011;61071;51.618;19.388;2023-04-08T08:34:00;11.15;;;8.23;;
72926;SDS011;61071;51.618;19.388;2023-04-08T08:36:26;9.48;;;8.32;;
72926;SDS011;61071;51.618;19.388;2023-04-08T08:38:52;9.98;;;8.63;;
72926;SDS011;61071;51.618;19.388;2023-04-08T08:41:19;9.75;;;8.13;;
72926;SDS011;61071;51.618;19.388;2023-04-08T08:43:45;10.82;;;8.57;;
72926;SDS011;61071;51.618;19.388;2023-04-08T08:46:12;8.75;;;7.07;;
72926;SDS011;61071;51.618;19.388;2023-04-08T08:48:41;9.63;;;8.18;;
72926;SDS011;61071;51.618;19.388;2023-04-08T08:51:08;11.07;;;8.85;;
72926;SDS011;61071;51.618;19.388;2023-04-08T08:53:35;9.05;;;8.02;;
72926;SDS011;61071;51.618;19.388;2023-04-08T08:56:02;11.07;;;8.32;;
72926;SDS011;61071;51.618;19.388;2023-04-08T08:58:29;9.80;;;8.13;;
72926;SDS011;61071;51.618;19.388;2023-04-08T09:00:54;9.07;;;8.00;;
72926;SDS011;61071;51.618;19.388;2023-04-08T09:03:21;10.15;;;8.80;;
72926;SDS011;61071;51.618;19.388;2023-04-08T09:05:52;11.48;;;7.78;;
72926;SDS011;61071;51.618;19.388;2023-04-08T09:08:30;10.52;;;8.90;;
72926;SDS011;61071;51.618;19.388;2023-04-08T09:11:19;11.18;;;8.18;;
72926;SDS011;61071;51.618;19.388;2023-04-08T09:13:48;10.45;;;8.82;;
72926;SDS011;61071;51.618;19.388;2023-04-08T09:16:14;11.80;;;8.60;;
72926;SDS011;61071;51.618;19.388;2023-04-08T09:18:43;10.40;;;9.13;;
72926;SDS011;61071;51.618;19.388;2023-04-08T09:21:11;10.30;;;9.07;;
72926;SDS011;61071;51.618;19.388;2023-04-08T09:26:27;11.18;;;9.55;;
72926;SDS011;61071;51.618;19.388;2023-04-08T09:28:58;9.82;;;7.93;;
72926;SDS011;61071;51.618;19.388;2023-04-08T09:31:33;10.27;;;9.15;;
72926;SDS011;61071;51.618;19.388;2023-04-08T09:34:15;11.25;;;8.68;;
72926;SDS011;61071;51.618;19.388;2023-04-08T09:36:43;9.50;;;8.27;;
72926;SDS011;61071;51.618;19.388;2023-04-08T09:39:09;9.40;;;8.48;;
72926;SDS011;61071;51.618;19.388;2023-04-08T09:41:36;14.73;;;8.75;;
72926;SDS011;61071;51.618;19.388;2023-04-08T09:44:05;10.85;;;9.55;;
72926;SDS011;61071;51.618;19.388;2023-04-08T09:46:35;10.13;;;8.43;;
72926;SDS011;61071;51.618;19.388;2023-04-08T09:49:12;9.55;;;8.55;;
72926;SDS011;61071;51.618;19.388;2023-04-08T09:54:54;10.85;;;8.85;;
72926;SDS011;61071;51.618;19.388;2023-04-08T10:00:10;10.65;;;8.70;;
72926;SDS011;61071;51.618;19.388;2023-04-08T10:03:26;10.05;;;8.68;;
72926;SDS011;61071;51.618;19.388;2023-04-08T10:05:35;9.73;;;8.73;;
72926;SDS011;61071;51.618;19.388;2023-04-08T10:08:04;10.95;;;7.68;;
72926;SDS011;61071;51.618;19.388;2023-04-08T10:10:32;9.18;;;8.00;;
72926;SDS011;61071;51.618;19.388;2023-04-08T10:13:05;9.32;;;8.10;;
72926;SDS011;61071;51.618;19.388;2023-04-08T10:15:32;9.05;;;7.72;;
72926;SDS011;61071;51.618;19.388;2023-04-08T10:25:44;9.70;;;7.70;;
72926;SDS011;61071;51.618;19.388;2023-04-08T10:30:46;9.45;;;8.32;;
72926;SDS011;61071;51.618;19.388;2023-04-08T10:33:15;9.48;;;7.95;;
72926;SDS011;61071;51.618;19.388;2023-04-08T10:36:11;12.02;;;8.82;;
72926;SDS011;61071;51.618;19.388;2023-04-08T10:38:37;11.50;;;8.77;;
72926;SDS011;61071;51.618;19.388;2023-04-08T10:41:03;10.88;;;8.27;;
72926;SDS011;61071;51.618;19.388;2023-04-08T10:43:32;9.32;;;8.07;;
72926;SDS011;61071;51.618;19.388;2023-04-08T10:45:59;9.48;;;7.70;;
72926;SDS011;61071;51.618;19.388;2023-04-08T10:48:25;9.23;;;7.82;;
72926;SDS011;61071;51.618;19.388;2023-04-08T10:50:55;9.20;;;7.38;;
72926;SDS011;61071;51.618;19.388;2023-04-08T10:53:33;9.10;;;7.80;;
72926;SDS011;61071;51.618;19.388;2023-04-08T10:56:05;8.55;;;7.20;;
72926;SDS011;61071;51.618;19.388;2023-04-08T10:58:49;9.23;;;7.90;;
72926;SDS011;61071;51.618;19.388;2023-04-08T11:01:16;8.23;;;7.25;;
72926;SDS011;61071;51.618;19.388;2023-04-08T11:03:43;8.73;;;7.13;;
72926;SDS011;61071;51.618;19.388;2023-04-08T11:06:09;9.45;;;7.25;;
72926;SDS011;61071;51.618;19.388;2023-04-08T11:08:36;9.57;;;7.82;;
72926;SDS011;61071;51.618;19.388;2023-04-08T11:11:03;8.32;;;7.35;;
72926;SDS011;61071;51.618;19.388;2023-04-08T11:13:35;8.50;;;7.70;;
72926;SDS011;61071;51.618;19.388;2023-04-08T11:16:03;8.73;;;7.18;;
72926;SDS011;61071;51.618;19.388;2023-04-08T11:18:39;8.43;;;7.60;;
72926;SDS011;61071;51.618;19.388;2023-04-08T11:21:08;9.88;;;6.97;;
72926;SDS011;61071;51.618;19.388;2023-04-08T11:23:35;11.98;;;8.02;;
72926;SDS011;61071;51.618;19.388;2023-04-08T11:26:01;9.02;;;7.18;;
72926;SDS011;61071;51.618;19.388;2023-04-08T11:28:28;7.65;;;6.63;;
72926;SDS011;61071;51.618;19.388;2023-04-08T11:30:55;8.93;;;7.15;;
72926;SDS011;61071;51.618;19.388;2023-04-08T11:33:25;7.95;;;7.15;;
72926;SDS011;61071;51.618;19.388;2023-04-08T11:35:54;7.57;;;6.78;;
72926;SDS011;61071;51.618;19.388;2023-04-08T11:38:21;7.43;;;6.18;;
72926;SDS011;61071;51.618;19.388;2023-04-08T11:40:52;7.03;;;6.32;;
72926;SDS011;61071;51.618;19.388;2023-04-08T11:43:22;7.07;;;6.38;;
72926;SDS011;61071;51.618;19.388;2023-04-08T11:45:49;7.32;;;6.25;;
72926;SDS011;61071;51.618;19.388;2023-04-08T11:48:15;7.75;;;6.85;;
72926;SDS011;61071;51.618;19.388;2023-04-08T11:50:41;9.20;;;6.57;;
72926;SDS011;61071;51.618;19.388;2023-04-08T11:53:15;8.15;;;6.07;;
72926;SDS011;61071;51.618;19.388;2023-04-08T11:55:50;7.55;;;6.85;;
72926;SDS011;61071;51.618;19.388;2023-04-08T11:58:16;6.80;;;5.95;;
72926;SDS011;61071;51.618;19.388;2023-04-08T12:00:42;8.70;;;6.18;;
72926;SDS011;61071;51.618;19.388;2023-04-08T12:03:09;7.97;;;6.50;;
72926;SDS011;61071;51.618;19.388;2023-04-08T12:05:35;7.68;;;6.88;;
72926;SDS011;61071;51.618;19.388;2023-04-08T12:08:01;7.18;;;6.40;;
72926;SDS011;61071;51.618;19.388;2023-04-08T12:10:27;8.57;;;6.32;;
72926;SDS011;61071;51.618;19.388;2023-04-08T12:12:53;6.97;;;6.05;;
72926;SDS011;61071;51.618;19.388;2023-04-08T12:15:18;7.15;;;6.07;;
72926;SDS011;61071;51.618;19.388;2023-04-08T12:17:44;7.43;;;6.35;;
72926;SDS011;61071;51.618;19.388;2023-04-08T12:20:10;7.22;;;6.35;;
72926;SDS011;61071;51.618;19.388;2023-04-08T12:22:37;7.65;;;6.15;;
72926;SDS011;61071;51.618;19.388;2023-04-08T12:25:03;7.35;;;5.70;;
72926;SDS011;61071;51.618;19.388;2023-04-08T12:27:30;7.13;;;6.03;;
72926;SDS011;61071;51.618;19.388;2023-04-08T12:30:00;6.32;;;5.68;;
72926;SDS011;61071;51.618;19.388;2023-04-08T12:32:27;6.25;;;5.32;;
72926;SDS011;61071;51.618;19.388;2023-04-08T12:34:53;6.25;;;5.18;;
72926;SDS011;61071;51.618;19.388;2023-04-08T12:37:19;6.97;;;5.60;;
72926;SDS011;61071;51.618;19.388;2023-04-08T12:39:45;7.32;;;5.75;;
72926;SDS011;61071;51.618;19.388;2023-04-08T12:42:12;5.60;;;5.00;;
72926;SDS011;61071;51.618;19.388;2023-04-08T12:44:38;6.15;;;5.50;;
72926;SDS011;61071;51.618;19.388;2023-04-08T12:47:04;7.18;;;5.50;;
72926;SDS011;61071;51.618;19.388;2023-04-08T12:49:30;5.22;;;4.70;;
72926;SDS011;61071;51.618;19.388;2023-04-08T12:51:55;6.78;;;5.32;;
72926;SDS011;61071;51.618;19.388;2023-04-08T12:54:21;7.40;;;5.85;;
72926;SDS011;61071;51.618;19.388;2023-04-08T12:56:47;6.82;;;5.22;;
72926;SDS011;61071;51.618;19.388;2023-04-08T12:59:13;6.38;;;5.70;;
72926;SDS011;61071;51.618;19.388;2023-04-08T13:01:38;6.80;;;5.80;;
72926;SDS011;61071;51.618;19.388;2023-04-08T13:04:05;6.57;;;5.15;;
72926;SDS011;61071;51.618;19.388;2023-04-08T13:06:30;5.80;;;5.20;;
72926;SDS011;61071;51.618;19.388;2023-04-08T13:08:56;9.45;;;6.65;;
72926;SDS011;61071;51.618;19.388;2023-04-08T13:11:22;7.03;;;6.10;;
72926;SDS011;61071;51.618;19.388;2023-04-08T13:13:47;6.80;;;5.80;;
72926;SDS011;61071;51.618;19.388;2023-04-08T13:16:13;5.80;;;5.20;;
72926;SDS011;61071;51.618;19.388;2023-04-08T13:18:39;7.47;;;5.93;;
72926;SDS011;61071;51.618;19.388;2023-04-08T13:21:06;6.00;;;5.40;;
72926;SDS011;61071;51.618;19.388;2023-04-08T13:23:32;11.23;;;7.50;;
72926;SDS011;61071;51.618;19.388;2023-04-08T13:25:58;8.57;;;6.47;;
72926;SDS011;61071;51.618;19.388;2023-04-08T13:28:25;7.15;;;5.32;;
72926;SDS011;61071;51.618;19.388;2023-04-08T13:30:50;6.60;;;5.50;;
72926;SDS011;61071;51.618;19.388;2023-04-08T13:33:17;10.40;;;5.78;;
72926;SDS011;61071;51.618;19.388;2023-04-08T13:35:43;6.13;;;5.45;;
72926;SDS011;61071;51.618;19.388;2023-04-08T13:38:09;7.13;;;5.68;;
72926;SDS011;61071;51.618;19.388;2023-04-08T13:40:35;9.02;;;4.88;;
72926;SDS011;61071;51.618;19.388;2023-04-08T13:43:01;5.68;;;5.07;;
72926;SDS011;61071;51.618;19.388;2023-04-08T13:45:26;6.80;;;5.22;;
72926;SDS011;61071;51.618;19.388;2023-04-08T13:47:52;5.03;;;4.50;;
72926;SDS011;61071;51.618;19.388;2023-04-08T13:50:18;6.03;;;5.05;;
72926;SDS011;61071;51.618;19.388;2023-04-08T13:52:43;5.72;;;4.93;;
72926;SDS011;61071;51.618;19.388;2023-04-08T13:55:09;6.28;;;5.22;;
72926;SDS011;61071;51.618;19.388;2023-04-08T13:57:35;5.88;;;5.28;;
72926;SDS011;61071;51.618;19.388;2023-04-08T14:00:00;6.03;;;5.22;;
72926;SDS011;61071;51.618;19.388;2023-04-08T14:02:26;7.85;;;5.10;;
72926;SDS011;61071;51.618;19.388;2023-04-08T14:04:52;20.48;;;10.20;;
72926;SDS011;61071;51.618;19.388;2023-04-08T14:07:17;9.55;;;5.65;;
72926;SDS011;61071;51.618;19.388;2023-04-08T14:09:43;5.53;;;4.95;;
72926;SDS011;61071;51.618;19.388;2023-04-08T14:12:09;6.80;;;5.10;;
72926;SDS011;61071;51.618;19.388;2023-04-08T14:14:35;4.90;;;4.32;;
72926;SDS011;61071;51.618;19.388;2023-04-08T14:17:00;11.88;;;7.15;;
72926;SDS011;61071;51.618;19.388;2023-04-08T14:19:26;18.65;;;10.93;;
72926;SDS011;61071;51.618;19.388;2023-04-08T14:21:52;9.45;;;5.75;;
72926;SDS011;61071;51.618;19.388;2023-04-08T14:24:17;17.90;;;9.95;;
72926;SDS011;61071;51.618;19.388;2023-04-08T14:26:43;26.77;;;11.13;;
72926;SDS011;61071;51.618;19.388;2023-04-08T14:29:09;13.25;;;6.63;;
72926;SDS011;61071;51.618;19.388;2023-04-08T14:31:35;14.50;;;6.90;;
72926;SDS011;61071;51.618;19.388;2023-04-08T14:34:01;4.43;;;3.97;;
72926;SDS011;61071;51.618;19.388;2023-04-08T14:36:28;27.73;;;10.27;;
72926;SDS011;61071;51.618;19.388;2023-04-08T14:38:55;9.43;;;5.32;;
72926;SDS011;61071;51.618;19.388;2023-04-08T14:41:21;9.10;;;6.13;;
72926;SDS011;61071;51.618;19.388;2023-04-08T14:43:47;9.38;;;6.10;;
72926;SDS011;61071;51.618;19.388;2023-04-08T14:46:13;7.25;;;5.10;;
72926;SDS011;61071;51.618;19.388;2023-04-08T14:48:39;6.95;;;5.40;;
72926;SDS011;61071;51.618;19.388;2023-04-08T14:51:05;15.57;;;7.22;;
72926;SDS011;61071;51.618;19.388;2023-04-08T14:53:31;8.25;;;5.95;;